sensor_id;sensor_type;location;lat;lon;timestamp;P1;durP1;ratioP1;P2;durP2;ratioP2
61152;SDS011;47030;50.732;4.286;2022-09-01T00:00:59;4.00;;;3.17;;
61152;SDS011;47030;50.732;4.286;2022-09-01T00:03:27;7.75;;;3.72;;
61152;SDS011;47030;50.732;4.286;2022-09-01T00:05:53;6.55;;;3.50;;
61152;SDS011;47030;50.732;4.286;2022-09-01T00:08:21;7.32;;;3.50;;
61152;SDS011;47030;50.732;4.286;2022-09-01T00:10:48;10.80;;;3.58;;
61152;SDS011;47030;50.732;4.286;2022-09-01T00:13:14;5.68;;;3.33;;
61152;SDS011;47030;50.732;4.286;2022-09-01T00:15:40;9.82;;;3.42;;
61152;SDS011;47030;50.732;4.286;2022-09-01T00:18:05;7.37;;;3.40;;
61152;SDS011;47030;50.732;4.286;2022-09-01T00:20:31;7.28;;;3.37;;
61152;SDS011;47030;50.732;4.286;2022-09-01T00:22:57;6.30;;;3.58;;
61152;SDS011;47030;50.732;4.286;2022-09-01T00:25:25;8.85;;;3.72;;
61152;SDS011;47030;50.732;4.286;2022-09-01T00:27:52;4.62;;;3.28;;
61152;SDS011;47030;50.732;4.286;2022-09-01T00:30:19;4.68;;;3.08;;
61152;SDS011;47030;50.732;4.286;2022-09-01T00:32:45;7.50;;;3.42;;
61152;SDS011;47030;50.732;4.286;2022-09-01T00:35:13;4.28;;;3.00;;
61152;SDS011;47030;50.732;4.286;2022-09-01T00:37:40;6.65;;;3.37;;
61152;SDS011;47030;50.732;4.286;2022-09-01T00:40:07;4.95;;;3.00;;
61152;SDS011;47030;50.732;4.286;2022-09-01T00:42:35;5.15;;;3.17;;
61152;SDS011;47030;50.732;4.286;2022-09-01T00:45:02;5.93;;;3.78;;
61152;SDS011;47030;50.732;4.286;2022-09-01T00:47:29;5.37;;;3.35;;
61152;SDS011;47030;50.732;4.286;2022-09-01T00:49:54;7.57;;;3.47;;
61152;SDS011;47030;50.732;4.286;2022-09-01T00:54:59;5.12;;;3.42;;
61152;SDS011;47030;50.732;4.286;2022-09-01T00:57:28;7.70;;;3.20;;
61152;SDS011;47030;50.732;4.286;2022-09-01T01:00:04;5.07;;;3.10;;
61152;SDS011;47030;50.732;4.286;2022-09-01T01:02:39;5.20;;;3.08;;
61152;SDS011;47030;50.732;4.286;2022-09-01T01:05:06;5.95;;;3.20;;
61152;SDS011;47030;50.732;4.286;2022-09-01T01:07:33;7.87;;;3.10;;
61152;SDS011;47030;50.732;4.286;2022-09-01T01:10:03;8.15;;;3.35;;
61152;SDS011;47030;50.732;4.286;2022-09-01T01:12:32;8.05;;;3.10;;
61152;SDS011;47030;50.732;4.286;2022-09-01T01:15:04;3.83;;;2.78;;
61152;SDS011;47030;50.732;4.286;2022-09-01T01:17:35;8.00;;;3.20;;
61152;SDS011;47030;50.732;4.286;2022-09-01T01:20:01;7.18;;;3.15;;
61152;SDS011;47030;50.732;4.286;2022-09-01T01:25:46;7.47;;;3.12;;
61152;SDS011;47030;50.732;4.286;2022-09-01T01:28:22;6.57;;;3.10;;
61152;SDS011;47030;50.732;4.286;2022-09-01T01:31:00;5.60;;;3.15;;
61152;SDS011;47030;50.732;4.286;2022-09-01T01:33:32;6.18;;;2.87;;
61152;SDS011;47030;50.732;4.286;2022-09-01T01:36:05;10.40;;;3.58;;
61152;SDS011;47030;50.732;4.286;2022-09-01T01:38:34;7.57;;;3.60;;
61152;SDS011;47030;50.732;4.286;2022-09-01T01:41:01;4.57;;;3.03;;
61152;SDS011;47030;50.732;4.286;2022-09-01T01:43:27;10.18;;;3.20;;
61152;SDS011;47030;50.732;4.286;2022-09-01T01:45:54;6.68;;;3.28;;
61152;SDS011;47030;50.732;4.286;2022-09-01T01:48:23;5.53;;;3.80;;
61152;SDS011;47030;50.732;4.286;2022-09-01T01:50:49;11.00;;;3.12;;
61152;SDS011;47030;50.732;4.286;2022-09-01T01:53:16;5.28;;;3.42;;
61152;SDS011;47030;50.732;4.286;2022-09-01T01:55:43;6.45;;;3.45;;
61152;SDS011;47030;50.732;4.286;2022-09-01T01:58:16;6.97;;;3.60;;
61152;SDS011;47030;50.732;4.286;2022-09-01T02:00:44;6.65;;;3.60;;
61152;SDS011;47030;50.732;4.286;2022-09-01T02:03:12;6.80;;;3.20;;
61152;SDS011;47030;50.732;4.286;2022-09-01T02:05:43;5.85;;;3.45;;
61152;SDS011;47030;50.732;4.286;2022-09-01T02:08:10;9.02;;;3.28;;
61152;SDS011;47030;50.732;4.286;2022-09-01T02:10:40;5.40;;;3.05;;
61152;SDS011;47030;50.732;4.286;2022-09-01T02:13:08;7.95;;;3.35;;
61152;SDS011;47030;50.732;4.286;2022-09-01T02:15:40;5.90;;;3.37;;
61152;SDS011;47030;50.732;4.286;2022-09-01T02:18:12;6.60;;;3.20;;
61152;SDS011;47030;50.732;4.286;2022-09-01T02:20:42;8.07;;;2.92;;
61152;SDS011;47030;50.732;4.286;2022-09-01T02:23:09;7.97;;;3.20;;
61152;SDS011;47030;50.732;4.286;2022-09-01T02:25:40;7.15;;;3.50;;
61152;SDS011;47030;50.732;4.286;2022-09-01T02:28:09;9.93;;;3.72;;
61152;SDS011;47030;50.732;4.286;2022-09-01T02:30:39;5.53;;;3.28;;
61152;SDS011;47030;50.732;4.286;2022-09-01T02:33:09;5.07;;;3.28;;
61152;SDS011;47030;50.732;4.286;2022-09-01T02:36:05;8.50;;;3.83;;
61152;SDS011;47030;50.732;4.286;2022-09-01T02:38:30;6.55;;;3.40;;
61152;SDS011;47030;50.732;4.286;2022-09-01T02:40:58;10.35;;;3.58;;
61152;SDS011;47030;50.732;4.286;2022-09-01T02:43:26;6.18;;;3.58;;
61152;SDS011;47030;50.732;4.286;2022-09-01T02:45:53;7.22;;;4.10;;
61152;SDS011;47030;50.732;4.286;2022-09-01T02:48:24;7.47;;;3.87;;
61152;SDS011;47030;50.732;4.286;2022-09-01T02:50:56;6.12;;;3.70;;
61152;SDS011;47030;50.732;4.286;2022-09-01T02:53:23;8.68;;;4.03;;
61152;SDS011;47030;50.732;4.286;2022-09-01T02:55:50;7.47;;;3.55;;
61152;SDS011;47030;50.732;4.286;2022-09-01T02:58:16;8.07;;;4.12;;
61152;SDS011;47030;50.732;4.286;2022-09-01T03:00:44;7.60;;;3.90;;
61152;SDS011;47030;50.732;4.286;2022-09-01T03:03:16;7.45;;;3.72;;
61152;SDS011;47030;50.732;4.286;2022-09-01T03:05:44;6.90;;;4.37;;
61152;SDS011;47030;50.732;4.286;2022-09-01T03:08:10;9.38;;;4.32;;
61152;SDS011;47030;50.732;4.286;2022-09-01T03:10:40;8.45;;;4.30;;
61152;SDS011;47030;50.732;4.286;2022-09-01T03:13:10;8.02;;;3.75;;
61152;SDS011;47030;50.732;4.286;2022-09-01T03:15:38;10.38;;;4.68;;
61152;SDS011;47030;50.732;4.286;2022-09-01T03:18:05;7.43;;;4.37;;
61152;SDS011;47030;50.732;4.286;2022-09-01T03:20:33;7.15;;;4.00;;
61152;SDS011;47030;50.732;4.286;2022-09-01T03:23:00;7.68;;;4.70;;
61152;SDS011;47030;50.732;4.286;2022-09-01T03:25:27;8.65;;;4.57;;
61152;SDS011;47030;50.732;4.286;2022-09-01T03:27:54;12.10;;;4.55;;
61152;SDS011;47030;50.732;4.286;2022-09-01T03:30:23;7.45;;;4.12;;
61152;SDS011;47030;50.732;4.286;2022-09-01T03:32:49;6.28;;;3.83;;
61152;SDS011;47030;50.732;4.286;2022-09-01T03:35:15;11.30;;;4.50;;
61152;SDS011;47030;50.732;4.286;2022-09-01T03:37:41;6.85;;;4.60;;
61152;SDS011;47030;50.732;4.286;2022-09-01T03:40:09;6.50;;;3.95;;
61152;SDS011;47030;50.732;4.286;2022-09-01T03:42:36;6.35;;;4.12;;
61152;SDS011;47030;50.732;4.286;2022-09-01T03:45:03;9.30;;;4.70;;
61152;SDS011;47030;50.732;4.286;2022-09-01T03:47:33;11.02;;;4.22;;
61152;SDS011;47030;50.732;4.286;2022-09-01T03:50:11;7.07;;;4.62;;
61152;SDS011;47030;50.732;4.286;2022-09-01T03:52:44;7.53;;;4.35;;
61152;SDS011;47030;50.732;4.286;2022-09-01T03:55:25;8.13;;;4.60;;
61152;SDS011;47030;50.732;4.286;2022-09-01T03:57:54;8.68;;;4.10;;
61152;SDS011;47030;50.732;4.286;2022-09-01T04:00:32;10.90;;;4.87;;
61152;SDS011;47030;50.732;4.286;2022-09-01T04:03:02;9.00;;;4.57;;
61152;SDS011;47030;50.732;4.286;2022-09-01T04:05:32;6.15;;;4.32;;
61152;SDS011;47030;50.732;4.286;2022-09-01T04:07:59;9.95;;;4.47;;
61152;SDS011;47030;50.732;4.286;2022-09-01T04:10:28;9.13;;;4.18;;
61152;SDS011;47030;50.732;4.286;2022-09-01T04:12:56;7.93;;;4.50;;
61152;SDS011;47030;50.732;4.286;2022-09-01T04:15:23;6.65;;;3.92;;
61152;SDS011;47030;50.732;4.286;2022-09-01T04:17:50;6.95;;;4.30;;
61152;SDS011;47030;50.732;4.286;2022-09-01T04:20:33;6.87;;;4.95;;
61152;SDS011;47030;50.732;4.286;2022-09-01T04:23:11;7.05;;;4.05;;
61152;SDS011;47030;50.732;4.286;2022-09-01T04:25:41;6.15;;;4.10;;
61152;SDS011;47030;50.732;4.286;2022-09-01T04:28:07;10.25;;;3.97;;
61152;SDS011;47030;50.732;4.286;2022-09-01T04:30:46;11.40;;;4.10;;
61152;SDS011;47030;50.732;4.286;2022-09-01T04:33:17;6.03;;;4.07;;
61152;SDS011;47030;50.732;4.286;2022-09-01T04:35:43;6.80;;;4.03;;
61152;SDS011;47030;50.732;4.286;2022-09-01T04:38:09;7.30;;;4.40;;
61152;SDS011;47030;50.732;4.286;2022-09-01T04:40:38;8.38;;;4.20;;
61152;SDS011;47030;50.732;4.286;2022-09-01T04:43:05;7.32;;;4.37;;
61152;SDS011;47030;50.732;4.286;2022-09-01T04:45:33;6.12;;;4.20;;
61152;SDS011;47030;50.732;4.286;2022-09-01T04:48:00;6.93;;;4.40;;
61152;SDS011;47030;50.732;4.286;2022-09-01T04:50:27;8.98;;;4.80;;
61152;SDS011;47030;50.732;4.286;2022-09-01T04:52:58;9.32;;;4.30;;
61152;SDS011;47030;50.732;4.286;2022-09-01T04:55:25;12.95;;;4.25;;
61152;SDS011;47030;50.732;4.286;2022-09-01T04:57:53;8.00;;;4.40;;
61152;SDS011;47030;50.732;4.286;2022-09-01T05:00:21;6.90;;;4.37;;
61152;SDS011;47030;50.732;4.286;2022-09-01T05:02:51;6.87;;;4.30;;
61152;SDS011;47030;50.732;4.286;2022-09-01T05:05:19;9.43;;;4.62;;
61152;SDS011;47030;50.732;4.286;2022-09-01T05:07:47;8.18;;;5.15;;
61152;SDS011;47030;50.732;4.286;2022-09-01T05:10:19;6.80;;;4.15;;
61152;SDS011;47030;50.732;4.286;2022-09-01T05:12:46;11.50;;;3.97;;
61152;SDS011;47030;50.732;4.286;2022-09-01T05:15:13;8.43;;;4.57;;
61152;SDS011;47030;50.732;4.286;2022-09-01T05:17:39;9.98;;;4.35;;
61152;SDS011;47030;50.732;4.286;2022-09-01T05:20:06;8.75;;;5.18;;
61152;SDS011;47030;50.732;4.286;2022-09-01T05:22:34;12.70;;;4.60;;
61152;SDS011;47030;50.732;4.286;2022-09-01T05:25:00;9.65;;;4.65;;
61152;SDS011;47030;50.732;4.286;2022-09-01T05:27:40;9.90;;;4.35;;
61152;SDS011;47030;50.732;4.286;2022-09-01T05:30:13;6.75;;;4.15;;
61152;SDS011;47030;50.732;4.286;2022-09-01T05:32:40;8.75;;;4.12;;
61152;SDS011;47030;50.732;4.286;2022-09-01T05:35:07;11.77;;;4.70;;
61152;SDS011;47030;50.732;4.286;2022-09-01T05:37:36;9.07;;;3.97;;
61152;SDS011;47030;50.732;4.286;2022-09-01T05:40:06;7.62;;;4.18;;
61152;SDS011;47030;50.732;4.286;2022-09-01T05:42:33;10.38;;;4.60;;
61152;SDS011;47030;50.732;4.286;2022-09-01T05:45:03;7.53;;;4.20;;
61152;SDS011;47030;50.732;4.286;2022-09-01T05:47:29;8.32;;;5.37;;
61152;SDS011;47030;50.732;4.286;2022-09-01T05:50:02;13.98;;;4.07;;
61152;SDS011;47030;50.732;4.286;2022-09-01T05:52:30;8.00;;;4.45;;
61152;SDS011;47030;50.732;4.286;2022-09-01T05:55:00;14.40;;;4.70;;
61152;SDS011;47030;50.732;4.286;2022-09-01T05:57:25;11.90;;;4.15;;
61152;SDS011;47030;50.732;4.286;2022-09-01T05:59:51;13.73;;;4.45;;
61152;SDS011;47030;50.732;4.286;2022-09-01T06:02:19;7.80;;;4.00;;
61152;SDS011;47030;50.732;4.286;2022-09-01T06:04:46;8.07;;;4.12;;
61152;SDS011;47030;50.732;4.286;2022-09-01T06:07:13;8.82;;;4.25;;
61152;SDS011;47030;50.732;4.286;2022-09-01T06:09:42;6.25;;;3.85;;
61152;SDS011;47030;50.732;4.286;2022-09-01T06:12:10;9.32;;;3.45;;
61152;SDS011;47030;50.732;4.286;2022-09-01T06:14:41;8.70;;;3.47;;
61152;SDS011;47030;50.732;4.286;2022-09-01T06:17:08;7.90;;;3.90;;
61152;SDS011;47030;50.732;4.286;2022-09-01T06:19:35;8.65;;;3.75;;
61152;SDS011;47030;50.732;4.286;2022-09-01T06:22:02;14.65;;;4.18;;
61152;SDS011;47030;50.732;4.286;2022-09-01T06:24:28;5.53;;;3.92;;
61152;SDS011;47030;50.732;4.286;2022-09-01T06:26:54;8.95;;;3.90;;
61152;SDS011;47030;50.732;4.286;2022-09-01T06:29:20;10.88;;;3.78;;
61152;SDS011;47030;50.732;4.286;2022-09-01T06:31:45;8.90;;;3.72;;
61152;SDS011;47030;50.732;4.286;2022-09-01T06:34:15;9.68;;;3.90;;
61152;SDS011;47030;50.732;4.286;2022-09-01T06:36:42;6.22;;;3.55;;
61152;SDS011;47030;50.732;4.286;2022-09-01T06:39:09;10.73;;;4.03;;
61152;SDS011;47030;50.732;4.286;2022-09-01T06:41:43;7.60;;;3.40;;
61152;SDS011;47030;50.732;4.286;2022-09-01T06:44:13;8.45;;;3.80;;
61152;SDS011;47030;50.732;4.286;2022-09-01T06:46:40;10.27;;;3.78;;
61152;SDS011;47030;50.732;4.286;2022-09-01T06:49:05;7.65;;;3.30;;
61152;SDS011;47030;50.732;4.286;2022-09-01T06:51:35;11.10;;;3.72;;
61152;SDS011;47030;50.732;4.286;2022-09-01T06:54:01;7.68;;;3.78;;
61152;SDS011;47030;50.732;4.286;2022-09-01T06:56:28;5.97;;;4.05;;
61152;SDS011;47030;50.732;4.286;2022-09-01T06:58:58;5.53;;;2.97;;
61152;SDS011;47030;50.732;4.286;2022-09-01T07:01:25;10.02;;;3.80;;
61152;SDS011;47030;50.732;4.286;2022-09-01T07:03:51;6.93;;;3.40;;
61152;SDS011;47030;50.732;4.286;2022-09-01T07:06:20;4.55;;;3.20;;
61152;SDS011;47030;50.732;4.286;2022-09-01T07:08:52;9.27;;;4.07;;
61152;SDS011;47030;50.732;4.286;2022-09-01T07:11:21;6.82;;;3.75;;
61152;SDS011;47030;50.732;4.286;2022-09-01T07:13:53;5.95;;;3.50;;
61152;SDS011;47030;50.732;4.286;2022-09-01T07:16:21;6.10;;;3.37;;
61152;SDS011;47030;50.732;4.286;2022-09-01T07:18:49;4.85;;;3.28;;
61152;SDS011;47030;50.732;4.286;2022-09-01T07:21:17;7.18;;;3.72;;
61152;SDS011;47030;50.732;4.286;2022-09-01T07:23:43;4.25;;;2.97;;
61152;SDS011;47030;50.732;4.286;2022-09-01T07:26:10;4.53;;;3.50;;
61152;SDS011;47030;50.732;4.286;2022-09-01T07:28:46;8.00;;;3.40;;
61152;SDS011;47030;50.732;4.286;2022-09-01T07:33:53;5.37;;;2.87;;
61152;SDS011;47030;50.732;4.286;2022-09-01T07:36:22;3.78;;;2.80;;
61152;SDS011;47030;50.732;4.286;2022-09-01T07:38:48;4.70;;;2.95;;
61152;SDS011;47030;50.732;4.286;2022-09-01T07:41:18;10.70;;;3.67;;
61152;SDS011;47030;50.732;4.286;2022-09-01T07:43:45;5.03;;;2.97;;
61152;SDS011;47030;50.732;4.286;2022-09-01T07:46:13;5.25;;;2.90;;
61152;SDS011;47030;50.732;4.286;2022-09-01T07:48:39;6.28;;;3.17;;
61152;SDS011;47030;50.732;4.286;2022-09-01T07:51:06;6.65;;;2.97;;
61152;SDS011;47030;50.732;4.286;2022-09-01T07:53:32;6.25;;;3.03;;
61152;SDS011;47030;50.732;4.286;2022-09-01T07:56:03;4.12;;;2.78;;
61152;SDS011;47030;50.732;4.286;2022-09-01T07:58:33;4.40;;;2.80;;
61152;SDS011;47030;50.732;4.286;2022-09-01T08:01:05;5.22;;;2.85;;
61152;SDS011;47030;50.732;4.286;2022-09-01T08:03:35;4.25;;;2.80;;
61152;SDS011;47030;50.732;4.286;2022-09-01T08:06:05;7.07;;;3.22;;
61152;SDS011;47030;50.732;4.286;2022-09-01T08:08:34;6.43;;;2.90;;
61152;SDS011;47030;50.732;4.286;2022-09-01T08:11:00;4.57;;;2.60;;
61152;SDS011;47030;50.732;4.286;2022-09-01T08:13:26;4.72;;;2.87;;
61152;SDS011;47030;50.732;4.286;2022-09-01T08:15:52;5.70;;;2.72;;
61152;SDS011;47030;50.732;4.286;2022-09-01T08:18:18;5.30;;;2.87;;
61152;SDS011;47030;50.732;4.286;2022-09-01T08:20:44;6.15;;;3.00;;
61152;SDS011;47030;50.732;4.286;2022-09-01T08:23:15;7.22;;;3.00;;
61152;SDS011;47030;50.732;4.286;2022-09-01T08:25:44;2.90;;;2.60;;
61152;SDS011;47030;50.732;4.286;2022-09-01T08:28:11;5.32;;;2.50;;
61152;SDS011;47030;50.732;4.286;2022-09-01T08:30:39;3.72;;;2.80;;
61152;SDS011;47030;50.732;4.286;2022-09-01T08:33:06;3.72;;;2.72;;
61152;SDS011;47030;50.732;4.286;2022-09-01T08:35:37;4.40;;;2.53;;
61152;SDS011;47030;50.732;4.286;2022-09-01T08:38:04;3.85;;;2.60;;
61152;SDS011;47030;50.732;4.286;2022-09-01T08:40:30;3.72;;;2.70;;
61152;SDS011;47030;50.732;4.286;2022-09-01T08:45:43;3.80;;;2.33;;
61152;SDS011;47030;50.732;4.286;2022-09-01T08:48:18;4.87;;;2.60;;
61152;SDS011;47030;50.732;4.286;2022-09-01T08:51:11;5.93;;;2.90;;
61152;SDS011;47030;50.732;4.286;2022-09-01T08:56:56;5.43;;;2.53;;
61152;SDS011;47030;50.732;4.286;2022-09-01T08:59:27;5.10;;;2.58;;
61152;SDS011;47030;50.732;4.286;2022-09-01T09:18:13;5.45;;;2.65;;
61152;SDS011;47030;50.732;4.286;2022-09-01T09:20:49;4.78;;;2.50;;
61152;SDS011;47030;50.732;4.286;2022-09-01T09:23:30;5.60;;;2.78;;
61152;SDS011;47030;50.732;4.286;2022-09-01T09:26:00;3.90;;;2.50;;
61152;SDS011;47030;50.732;4.286;2022-09-01T09:28:26;5.45;;;2.70;;
61152;SDS011;47030;50.732;4.286;2022-09-01T09:31:23;3.67;;;2.28;;
61152;SDS011;47030;50.732;4.286;2022-09-01T09:33:54;3.47;;;2.15;;
61152;SDS011;47030;50.732;4.286;2022-09-01T09:36:22;4.68;;;2.70;;
61152;SDS011;47030;50.732;4.286;2022-09-01T09:39:27;3.87;;;2.67;;
61152;SDS011;47030;50.732;4.286;2022-09-01T09:44:48;6.43;;;2.62;;
61152;SDS011;47030;50.732;4.286;2022-09-01T09:50:11;5.72;;;2.37;;
61152;SDS011;47030;50.732;4.286;2022-09-01T09:52:49;7.15;;;2.33;;
61152;SDS011;47030;50.732;4.286;2022-09-01T09:55:36;6.22;;;2.55;;
61152;SDS011;47030;50.732;4.286;2022-09-01T09:58:19;7.32;;;2.45;;
61152;SDS011;47030;50.732;4.286;2022-09-01T10:03:59;3.67;;;2.53;;
61152;SDS011;47030;50.732;4.286;2022-09-01T10:09:00;3.83;;;1.92;;
61152;SDS011;47030;50.732;4.286;2022-09-01T10:13:56;4.87;;;2.17;;
61152;SDS011;47030;50.732;4.286;2022-09-01T10:16:27;2.42;;;1.90;;
61152;SDS011;47030;50.732;4.286;2022-09-01T10:18:55;3.20;;;2.10;;
61152;SDS011;47030;50.732;4.286;2022-09-01T10:21:31;5.80;;;2.47;;
61152;SDS011;47030;50.732;4.286;2022-09-01T10:24:00;4.15;;;2.28;;
61152;SDS011;47030;50.732;4.286;2022-09-01T10:26:35;3.50;;;2.30;;
61152;SDS011;47030;50.732;4.286;2022-09-01T10:29:17;3.55;;;1.80;;
61152;SDS011;47030;50.732;4.286;2022-09-01T10:31:57;3.70;;;1.80;;
61152;SDS011;47030;50.732;4.286;2022-09-01T10:34:25;2.00;;;1.70;;
61152;SDS011;47030;50.732;4.286;2022-09-01T10:36:56;3.65;;;1.70;;
61152;SDS011;47030;50.732;4.286;2022-09-01T10:39:23;3.03;;;1.87;;
61152;SDS011;47030;50.732;4.286;2022-09-01T10:41:57;3.72;;;1.65;;
61152;SDS011;47030;50.732;4.286;2022-09-01T10:47:53;2.05;;;1.70;;
61152;SDS011;47030;50.732;4.286;2022-09-01T10:50:23;3.33;;;1.83;;
61152;SDS011;47030;50.732;4.286;2022-09-01T10:52:58;5.12;;;2.12;;
61152;SDS011;47030;50.732;4.286;2022-09-01T10:55:25;3.65;;;1.77;;
61152;SDS011;47030;50.732;4.286;2022-09-01T11:13:50;3.55;;;1.90;;
61152;SDS011;47030;50.732;4.286;2022-09-01T11:16:40;4.07;;;1.90;;
61152;SDS011;47030;50.732;4.286;2022-09-01T11:27:11;3.95;;;2.00;;
61152;SDS011;47030;50.732;4.286;2022-09-01T11:29:58;4.78;;;1.80;;
61152;SDS011;47030;50.732;4.286;2022-09-01T11:32:31;4.05;;;2.03;;
61152;SDS011;47030;50.732;4.286;2022-09-01T11:35:01;2.30;;;1.70;;
61152;SDS011;47030;50.732;4.286;2022-09-01T11:37:30;3.00;;;1.80;;
61152;SDS011;47030;50.732;4.286;2022-09-01T11:39:58;4.68;;;1.85;;
61152;SDS011;47030;50.732;4.286;2022-09-01T11:45:15;1.90;;;1.60;;
61152;SDS011;47030;50.732;4.286;2022-09-01T11:47:44;3.22;;;1.95;;
61152;SDS011;47030;50.732;4.286;2022-09-01T11:50:17;4.28;;;1.73;;
61152;SDS011;47030;50.732;4.286;2022-09-01T11:52:55;2.67;;;1.70;;
61152;SDS011;47030;50.732;4.286;2022-09-01T12:01:10;2.55;;;1.70;;
61152;SDS011;47030;50.732;4.286;2022-09-01T12:03:36;2.80;;;1.90;;
61152;SDS011;47030;50.732;4.286;2022-09-01T12:06:03;4.25;;;1.80;;
61152;SDS011;47030;50.732;4.286;2022-09-01T12:08:33;4.12;;;2.03;;
61152;SDS011;47030;50.732;4.286;2022-09-01T12:11:08;6.20;;;2.00;;
61152;SDS011;47030;50.732;4.286;2022-09-01T12:13:36;4.37;;;1.80;;
61152;SDS011;47030;50.732;4.286;2022-09-01T12:16:05;3.65;;;2.12;;
61152;SDS011;47030;50.732;4.286;2022-09-01T12:18:33;3.25;;;2.03;;
61152;SDS011;47030;50.732;4.286;2022-09-01T12:21:04;8.30;;;2.10;;
61152;SDS011;47030;50.732;4.286;2022-09-01T12:26:05;2.37;;;1.90;;
61152;SDS011;47030;50.732;4.286;2022-09-01T12:28:34;3.92;;;2.03;;
61152;SDS011;47030;50.732;4.286;2022-09-01T12:31:04;4.45;;;2.00;;
61152;SDS011;47030;50.732;4.286;2022-09-01T12:33:32;2.87;;;2.05;;
61152;SDS011;47030;50.732;4.286;2022-09-01T12:38:53;4.60;;;1.85;;
61152;SDS011;47030;50.732;4.286;2022-09-01T12:41:31;2.87;;;1.90;;
61152;SDS011;47030;50.732;4.286;2022-09-01T12:46:58;4.55;;;2.22;;
61152;SDS011;47030;50.732;4.286;2022-09-01T12:49:53;2.17;;;1.80;;
61152;SDS011;47030;50.732;4.286;2022-09-01T12:52:23;2.72;;;1.70;;
61152;SDS011;47030;50.732;4.286;2022-09-01T12:55:05;6.68;;;1.92;;
61152;SDS011;47030;50.732;4.286;2022-09-01T12:57:45;2.72;;;2.00;;
61152;SDS011;47030;50.732;4.286;2022-09-01T13:00:19;2.85;;;1.92;;
61152;SDS011;47030;50.732;4.286;2022-09-01T13:05:36;3.78;;;1.92;;
61152;SDS011;47030;50.732;4.286;2022-09-01T13:10:39;2.80;;;2.00;;
61152;SDS011;47030;50.732;4.286;2022-09-01T13:13:08;5.60;;;1.80;;
61152;SDS011;47030;50.732;4.286;2022-09-01T13:15:36;3.25;;;2.00;;
61152;SDS011;47030;50.732;4.286;2022-09-01T13:18:04;4.55;;;1.85;;
61152;SDS011;47030;50.732;4.286;2022-09-01T13:20:30;4.25;;;1.50;;
61152;SDS011;47030;50.732;4.286;2022-09-01T13:22:56;3.10;;;2.03;;
61152;SDS011;47030;50.732;4.286;2022-09-01T13:25:22;2.80;;;1.92;;
61152;SDS011;47030;50.732;4.286;2022-09-01T13:27:49;4.68;;;1.77;;
61152;SDS011;47030;50.732;4.286;2022-09-01T13:30:20;1.90;;;1.70;;
61152;SDS011;47030;50.732;4.286;2022-09-01T13:32:49;2.97;;;1.90;;
61152;SDS011;47030;50.732;4.286;2022-09-01T13:35:16;2.85;;;1.80;;
61152;SDS011;47030;50.732;4.286;2022-09-01T13:37:44;2.47;;;1.62;;
61152;SDS011;47030;50.732;4.286;2022-09-01T13:40:10;2.70;;;2.12;;
61152;SDS011;47030;50.732;4.286;2022-09-01T13:42:46;3.37;;;1.70;;
61152;SDS011;47030;50.732;4.286;2022-09-01T13:45:14;5.55;;;1.92;;
61152;SDS011;47030;50.732;4.286;2022-09-01T13:47:43;2.35;;;1.90;;
61152;SDS011;47030;50.732;4.286;2022-09-01T13:50:11;4.00;;;1.90;;
61152;SDS011;47030;50.732;4.286;2022-09-01T13:52:40;3.70;;;2.00;;
61152;SDS011;47030;50.732;4.286;2022-09-01T13:55:12;2.20;;;1.90;;
61152;SDS011;47030;50.732;4.286;2022-09-01T13:57:40;3.35;;;1.83;;
61152;SDS011;47030;50.732;4.286;2022-09-01T14:00:09;4.00;;;1.90;;
61152;SDS011;47030;50.732;4.286;2022-09-01T14:02:40;2.28;;;1.92;;
61152;SDS011;47030;50.732;4.286;2022-09-01T14:05:24;5.93;;;1.98;;
61152;SDS011;47030;50.732;4.286;2022-09-01T14:07:53;2.22;;;1.95;;
61152;SDS011;47030;50.732;4.286;2022-09-01T14:10:20;4.25;;;2.08;;
61152;SDS011;47030;50.732;4.286;2022-09-01T14:12:47;3.20;;;1.80;;
61152;SDS011;47030;50.732;4.286;2022-09-01T14:15:14;2.67;;;2.20;;
61152;SDS011;47030;50.732;4.286;2022-09-01T14:17:42;4.05;;;2.08;;
61152;SDS011;47030;50.732;4.286;2022-09-01T14:20:10;2.53;;;2.10;;
61152;SDS011;47030;50.732;4.286;2022-09-01T14:22:39;4.80;;;1.70;;
61152;SDS011;47030;50.732;4.286;2022-09-01T14:25:05;3.62;;;2.35;;
61152;SDS011;47030;50.732;4.286;2022-09-01T14:27:32;5.12;;;1.92;;
61152;SDS011;47030;50.732;4.286;2022-09-01T14:29:58;2.90;;;1.80;;
61152;SDS011;47030;50.732;4.286;2022-09-01T14:32:24;4.25;;;2.05;;
61152;SDS011;47030;50.732;4.286;2022-09-01T14:34:53;3.10;;;2.03;;
61152;SDS011;47030;50.732;4.286;2022-09-01T14:37:19;3.97;;;1.83;;
61152;SDS011;47030;50.732;4.286;2022-09-01T14:39:52;4.47;;;1.98;;
61152;SDS011;47030;50.732;4.286;2022-09-01T14:42:19;5.43;;;1.90;;
61152;SDS011;47030;50.732;4.286;2022-09-01T14:44:47;2.22;;;1.70;;
61152;SDS011;47030;50.732;4.286;2022-09-01T14:47:14;4.25;;;2.30;;
61152;SDS011;47030;50.732;4.286;2022-09-01T14:49:41;3.67;;;1.90;;
61152;SDS011;47030;50.732;4.286;2022-09-01T14:52:07;2.22;;;1.75;;
61152;SDS011;47030;50.732;4.286;2022-09-01T14:54:34;4.65;;;2.00;;
61152;SDS011;47030;50.732;4.286;2022-09-01T14:57:01;2.75;;;1.90;;
61152;SDS011;47030;50.732;4.286;2022-09-01T14:59:27;4.50;;;1.83;;
61152;SDS011;47030;50.732;4.286;2022-09-01T15:01:53;2.45;;;1.80;;
61152;SDS011;47030;50.732;4.286;2022-09-01T15:04:19;3.47;;;1.92;;
61152;SDS011;47030;50.732;4.286;2022-09-01T15:06:44;2.35;;;1.73;;
61152;SDS011;47030;50.732;4.286;2022-09-01T15:09:10;4.30;;;1.70;;
61152;SDS011;47030;50.732;4.286;2022-09-01T15:11:36;4.35;;;1.90;;
61152;SDS011;47030;50.732;4.286;2022-09-01T15:14:02;4.10;;;2.05;;
61152;SDS011;47030;50.732;4.286;2022-09-01T15:16:28;4.50;;;1.90;;
61152;SDS011;47030;50.732;4.286;2022-09-01T15:18:54;2.47;;;1.90;;
61152;SDS011;47030;50.732;4.286;2022-09-01T15:21:20;3.30;;;1.90;;
61152;SDS011;47030;50.732;4.286;2022-09-01T15:23:48;2.45;;;1.80;;
61152;SDS011;47030;50.732;4.286;2022-09-01T15:26:15;3.72;;;1.62;;
61152;SDS011;47030;50.732;4.286;2022-09-01T15:28:44;2.87;;;1.80;;
61152;SDS011;47030;50.732;4.286;2022-09-01T15:31:11;5.55;;;1.85;;
61152;SDS011;47030;50.732;4.286;2022-09-01T15:33:38;5.03;;;1.90;;
61152;SDS011;47030;50.732;4.286;2022-09-01T15:36:05;2.72;;;1.80;;
61152;SDS011;47030;50.732;4.286;2022-09-01T15:38:31;2.35;;;1.70;;
61152;SDS011;47030;50.732;4.286;2022-09-01T15:40:57;8.30;;;1.80;;
61152;SDS011;47030;50.732;4.286;2022-09-01T15:43:26;2.78;;;1.70;;
61152;SDS011;47030;50.732;4.286;2022-09-01T15:45:52;3.85;;;1.40;;
61152;SDS011;47030;50.732;4.286;2022-09-01T15:48:19;3.15;;;1.58;;
61152;SDS011;47030;50.732;4.286;2022-09-01T15:50:45;3.08;;;1.50;;
61152;SDS011;47030;50.732;4.286;2022-09-01T15:53:10;5.97;;;1.52;;
61152;SDS011;47030;50.732;4.286;2022-09-01T15:55:41;2.10;;;1.50;;
61152;SDS011;47030;50.732;4.286;2022-09-01T15:58:09;2.00;;;1.67;;
61152;SDS011;47030;50.732;4.286;2022-09-01T16:00:36;3.08;;;1.40;;
61152;SDS011;47030;50.732;4.286;2022-09-01T16:03:03;3.15;;;1.52;;
61152;SDS011;47030;50.732;4.286;2022-09-01T16:05:30;2.12;;;1.48;;
61152;SDS011;47030;50.732;4.286;2022-09-01T16:07:58;2.30;;;1.70;;
61152;SDS011;47030;50.732;4.286;2022-09-01T16:10:25;1.92;;;1.52;;
61152;SDS011;47030;50.732;4.286;2022-09-01T16:12:53;3.70;;;1.48;;
61152;SDS011;47030;50.732;4.286;2022-09-01T16:15:21;2.58;;;1.23;;
61152;SDS011;47030;50.732;4.286;2022-09-01T16:18:02;2.92;;;1.85;;
61152;SDS011;47030;50.732;4.286;2022-09-01T16:20:49;2.70;;;1.50;;
61152;SDS011;47030;50.732;4.286;2022-09-01T16:23:42;3.58;;;1.50;;
61152;SDS011;47030;50.732;4.286;2022-09-01T16:26:10;3.92;;;1.80;;
61152;SDS011;47030;50.732;4.286;2022-09-01T16:28:36;9.27;;;2.12;;
61152;SDS011;47030;50.732;4.286;2022-09-01T16:31:08;4.62;;;1.62;;
61152;SDS011;47030;50.732;4.286;2022-09-01T16:33:37;5.20;;;1.37;;